Time;durP1;ratioP1;P1;durP2;ratioP2;P2;SDS_P1;SDS_P2;PMS_P1;PMS_P2;Temp;Humidity;BMP_temperature;BMP_pressure;BME280_temperature;BME280_humidity;BME280_pressure;Samples;Min_cycle;Max_cycle;Signal;HPM_P1;HPM_P2
2024/03/05 00:03:04;;;;;;;48.92;23.30;;;;;;;5.52;100.00;100456.75;4768507;60;1140907;-70
2024/03/05 00:08:10;;;;;;;46.13;22.70;;;;;;;5.43;100.00;100465.16;4685046;61;1140829;-72
2024/03/05 00:13:17;;;;;;;42.77;22.37;;;;;;;5.34;100.00;100471.78;4628611;61;1142920;-70
2024/03/05 00:18:23;;;;;;;47.60;24.12;;;;;;;5.29;100.00;100466.80;4789996;60;1142717;-70
2024/03/05 00:23:28;;;;;;;57.03;25.20;;;;;;;5.25;100.00;100467.05;4790402;60;1141079;-70
2024/03/05 00:28:34;;;;;;;47.07;24.63;;;;;;;5.24;100.00;100465.35;4809294;60;1141193;-73
2024/03/05 00:33:40;;;;;;;45.27;24.03;;;;;;;5.22;100.00;100466.75;4789763;60;1141209;-71
2024/03/05 00:38:45;;;;;;;40.53;20.97;;;;;;;5.18;100.00;100469.65;4790088;60;1141115;-73
2024/03/05 00:43:52;;;;;;;45.87;23.80;;;;;;;5.18;100.00;100473.12;4797482;60;1143116;-72
2024/03/05 00:48:58;;;;;;;41.33;22.47;;;;;;;5.19;100.00;100476.12;4870007;59;1143067;-71
2024/03/05 00:54:03;;;;;;;47.00;24.83;;;;;;;5.22;100.00;100478.55;4866739;59;1140777;-70
2024/03/05 00:59:11;;;;;;;51.13;24.17;;;;;;;5.16;100.00;100478.91;4865126;59;1140943;-68
2024/03/05 01:04:16;;;;;;;44.30;22.50;;;;;;;5.11;100.00;100480.08;4789441;60;1141007;-70
2024/03/05 01:09:24;;;;;;;42.03;21.60;;;;;;;5.01;100.00;100478.91;4821813;59;1140975;-70
2024/03/05 01:14:30;;;;;;;40.87;19.20;;;;;;;4.90;100.00;100482.95;4887286;59;1150204;-70
2024/03/05 01:19:36;;;;;;;50.97;20.73;;;;;;;4.90;100.00;100481.64;4906194;59;1142812;-72
2024/03/05 01:24:42;;;;;;;49.67;19.10;;;;;;;4.81;100.00;100479.53;4887455;59;1140977;-73
2024/03/05 01:29:47;;;;;;;45.47;20.77;;;;;;;4.77;100.00;100478.00;4887365;59;1140890;-74
2024/03/05 01:34:55;;;;;;;41.37;17.97;;;;;;;4.68;100.00;100478.97;4792437;59;1140670;-71
2024/03/05 01:40:00;;;;;;;46.63;18.07;;;;;;;4.54;100.00;100480.56;4808889;59;1140911;-70
2024/03/05 01:45:07;;;;;;;36.30;15.33;;;;;;;4.47;100.00;100486.19;4854584;59;1140624;-73
2024/03/05 01:50:13;;;;;;;28.60;15.47;;;;;;;4.42;100.00;100484.30;4946720;58;1143020;-69
2024/03/05 01:55:20;;;;;;;36.67;17.50;;;;;;;4.35;100.00;100483.77;4797050;60;1140922;-69
2024/03/05 02:00:27;;;;;;;38.20;16.90;;;;;;;4.29;100.00;100485.38;4912421;58;1141046;-71
2024/03/05 02:05:33;;;;;;;31.68;15.98;;;;;;;4.17;100.00;100489.95;4837727;58;1140796;-74
2024/03/05 02:10:39;;;;;;;30.43;14.83;;;;;;;4.05;100.00;100482.27;4732418;59;1140759;-72
2024/03/05 02:15:45;;;;;;;32.93;13.62;;;;;;;3.99;100.00;100483.03;4857609;59;1141232;-70
2024/03/05 02:20:50;;;;;;;28.12;14.00;;;;;;;3.93;100.00;100498.60;4857201;59;1141066;-69
2024/03/05 02:25:57;;;;;;;34.90;15.40;;;;;;;3.93;100.00;100497.75;4857849;59;1140948;-71
2024/03/05 02:31:02;;;;;;;27.50;13.47;;;;;;;3.89;100.00;100494.44;4821508;59;1140782;-73
2024/03/05 02:36:09;;;;;;;29.77;14.00;;;;;;;3.85;100.00;100504.20;4799546;60;1140702;-72
2024/03/05 02:41:14;;;;;;;32.13;12.90;;;;;;;3.75;100.00;100506.91;4861992;59;1140796;-72
2024/03/05 02:46:20;;;;;;;25.60;12.20;;;;;;;3.69;100.00;100507.66;4796639;60;1141042;-72
2024/03/05 02:51:25;;;;;;;21.37;10.85;;;;;;;3.54;100.00;100502.72;4876230;59;1141195;-72
2024/03/05 02:56:31;;;;;;;23.12;11.55;;;;;;;3.57;100.00;100510.42;4777786;59;1140733;-72
2024/03/05 03:01:36;;;;;;;20.07;11.50;;;;;;;3.64;100.00;100511.83;4859818;59;1140463;-74
2024/03/05 03:06:43;;;;;;;30.53;12.20;;;;;;;3.70;100.00;100510.66;4799428;59;1140573;-74
2024/03/05 03:11:51;;;;;;;27.53;11.17;;;;;;;3.73;100.00;100518.36;4800610;59;1140898;-73
2024/03/05 03:16:57;;;;;;;22.75;12.18;;;;;;;3.74;100.00;100520.05;4800138;59;1140722;-72
2024/03/05 03:22:03;;;;;;;19.50;10.70;;;;;;;3.74;100.00;100515.67;4818657;59;1140913;-70
2024/03/05 03:27:08;;;;;;;28.90;11.13;;;;;;;3.72;100.00;100517.52;4870529;59;1140891;-73
2024/03/05 03:32:14;;;;;;;27.13;11.07;;;;;;;3.72;100.00;100511.44;4875959;59;1140607;-71
2024/03/05 03:37:20;;;;;;;20.80;9.27;;;;;;;3.75;100.00;100518.67;4796642;60;1140629;-72
2024/03/05 03:42:25;;;;;;;24.57;10.43;;;;;;;3.83;100.00;100524.36;4709997;61;1140637;-73
2024/03/05 03:47:31;;;;;;;23.60;11.60;;;;;;;3.83;100.00;100520.89;4708835;61;1140803;-73
2024/03/05 03:52:39;;;;;;;27.05;12.85;;;;;;;3.83;100.00;100521.74;4693167;60;1140638;-71
2024/03/05 03:57:46;;;;;;;23.43;11.23;;;;;;;3.84;100.00;100523.90;4587802;61;1140584;-72
2024/03/05 04:02:51;;;;;;;23.07;10.93;;;;;;;3.81;100.00;100525.39;4714235;60;1140552;-73
2024/03/05 04:07:57;;;;;;;19.02;9.98;;;;;;;3.80;100.00;100532.84;4711170;60;1140808;-70
2024/03/05 04:13:03;;;;;;;19.60;10.37;;;;;;;3.79;100.00;100528.53;4787583;60;1138495;-71
2024/03/05 04:18:08;;;;;;;21.20;10.27;;;;;;;3.75;100.00;100536.98;4765300;60;1140667;-73
2024/03/05 04:23:14;;;;;;;24.60;11.27;;;;;;;3.72;100.00;100537.12;4786699;60;1141104;-70
2024/03/05 04:28:20;;;;;;;30.35;11.60;;;;;;;3.68;100.00;100541.27;4793012;59;1140994;-72
2024/03/05 04:33:28;;;;;;;40.33;18.75;;;;;;;3.72;100.00;100545.44;4735098;60;1140844;-74
2024/03/05 04:38:32;;;;;;;32.28;14.73;;;;;;;3.79;100.00;100542.46;4623950;61;1143026;-70
2024/03/05 04:43:39;;;;;;;23.57;14.47;;;;;;;3.82;100.00;100546.67;4642749;61;1140882;-70
2024/03/05 04:48:44;;;;;;;26.10;12.77;;;;;;;3.79;100.00;100545.08;4625901;61;1140562;-71
2024/03/05 04:53:50;;;;;;;28.57;12.37;;;;;;;3.75;100.00;100548.76;4638280;61;1140738;-72
2024/03/05 04:58:56;;;;;;;19.17;11.27;;;;;;;3.72;100.00;100551.52;4733463;60;1140839;-71
2024/03/05 05:04:02;;;;;;;29.57;11.50;;;;;;;3.67;100.00;100550.88;4751778;60;1140784;-75
2024/03/05 05:09:08;;;;;;;23.87;11.50;;;;;;;3.63;100.00;100551.97;4840982;59;1141047;-72
2024/03/05 05:14:13;;;;;;;21.83;12.03;;;;;;;3.67;100.00;100557.88;4793442;59;1141001;-72
2024/03/05 05:19:20;;;;;;;23.30;11.70;;;;;;;3.72;100.00;100546.75;4797835;60;1140858;-71
2024/03/05 05:24:25;;;;;;;21.68;11.55;;;;;;;3.80;100.00;100556.39;4948440;58;1143182;-73
2024/03/05 05:29:31;;;;;;;30.43;11.50;;;;;;;3.82;100.00;100551.44;5007940;57;1140905;-75
2024/03/05 05:34:37;;;;;;;28.70;13.90;;;;;;;3.82;100.00;100560.59;4877110;59;1140928;-71
2024/03/05 05:39:42;;;;;;;31.10;13.83;;;;;;;3.78;100.00;100559.53;4858059;59;1140917;-72
2024/03/05 05:44:48;;;;;;;27.17;12.47;;;;;;;3.75;100.00;100561.84;4857895;59;1140719;-73
2024/03/05 05:49:54;;;;;;;33.03;14.77;;;;;;;3.74;100.00;100567.98;4831092;59;1140838;-75
2024/03/05 05:54:59;;;;;;;26.47;13.63;;;;;;;3.72;100.00;100567.21;4865025;59;1140908;-71
2024/03/05 06:00:08;;;;;;;31.67;13.87;;;;;;;3.75;100.00;100567.06;4797363;60;1140574;-70
2024/03/05 06:05:13;;;;;;;29.50;14.13;;;;;;;3.81;100.00;100572.47;4749263;61;1141219;-73
2024/03/05 06:10:19;;;;;;;28.03;13.93;;;;;;;3.85;100.00;100572.22;4700576;60;1140736;-72
2024/03/05 06:15:28;;;;;;;31.87;14.70;;;;;;;3.89;100.00;100578.16;4737060;60;1140670;-73
2024/03/05 06:20:32;;;;;;;29.30;14.10;;;;;;;3.92;100.00;100580.63;4749512;61;1141016;-71
2024/03/05 06:25:39;;;;;;;27.10;14.00;;;;;;;3.91;100.00;100576.32;4711588;61;1140585;-70
2024/03/05 06:30:46;;;;;;;28.60;14.37;;;;;;;3.88;100.00;100576.47;4676685;61;1140753;-71
2024/03/05 06:35:52;;;;;;;31.33;16.33;;;;;;;3.85;100.00;100579.22;4676497;61;1140780;-72
2024/03/05 06:40:57;;;;;;;26.87;14.83;;;;;;;3.84;100.00;100578.84;4720476;60;1140969;-69
2024/03/05 06:46:03;;;;;;;23.73;12.77;;;;;;;3.89;100.00;100580.31;4738967;60;1140943;-72
2024/03/05 06:51:26;;;;;;;29.07;13.65;;;;;;;3.95;100.00;100583.56;4701020;60;1143120;-70
2024/03/05 07:01:40;;;;;;;29.15;13.40;;;;;;;4.00;100.00;100588.94;4752628;61;1140787;-71
2024/03/05 07:06:47;;;;;;;23.87;14.17;;;;;;;3.95;100.00;100588.34;4749252;61;1140802;-69
2024/03/05 07:11:53;;;;;;;24.63;14.77;;;;;;;3.91;100.00;100588.09;4749207;61;1141320;-72
2024/03/05 07:16:59;;;;;;;32.23;18.25;;;;;;;3.95;100.00;100596.65;4749657;60;1140854;-71
2024/03/05 07:22:06;;;;;;;31.10;15.33;;;;;;;3.91;100.00;100589.86;4767097;60;1140798;-73
2024/03/05 07:27:12;;;;;;;23.60;12.27;;;;;;;3.92;100.00;100592.41;4748766;60;1141083;-70
2024/03/05 07:32:18;;;;;;;24.17;13.60;;;;;;;3.92;100.00;100594.17;4750049;60;1140820;-71
2024/03/05 07:37:23;;;;;;;27.57;12.80;;;;;;;3.96;100.00;100600.50;4769084;61;1140642;-73
2024/03/05 07:42:29;;;;;;;21.25;12.18;;;;;;;3.95;100.00;100606.66;4722903;60;1141117;-71
2024/03/05 07:47:34;;;;;;;18.80;11.30;;;;;;;3.92;100.00;100605.48;4677901;59;1140753;-71
2024/03/05 07:52:42;;;;;;;22.10;11.43;;;;;;;3.91;100.00;100601.64;4695814;60;1140995;-71
2024/03/05 07:57:53;;;;;;;16.77;10.43;;;;;;;3.95;100.00;100609.73;4697173;60;1143019;-70
2024/03/05 08:02:55;;;;;;;30.53;14.77;;;;;;;4.01;100.00;100606.80;4698247;60;1142966;-71
2024/03/05 08:08:01;;;;;;;27.22;13.65;;;;;;;4.04;100.00;100618.42;4677768;61;1140741;-72
2024/03/05 08:13:07;;;;;;;22.97;13.20;;;;;;;4.05;100.00;100616.20;4695717;61;1140989;-70
2024/03/05 08:18:12;;;;;;;21.23;13.63;;;;;;;4.02;100.00;100621.58;4625745;61;1140847;-70
2024/03/05 08:23:18;;;;;;;24.67;15.30;;;;;;;4.02;100.00;100622.88;4651590;61;1140623;-70
2024/03/05 08:28:24;;;;;;;28.47;15.53;;;;;;;4.00;100.00;100628.19;4659492;61;1140651;-71
2024/03/05 08:33:32;;;;;;;26.13;13.27;;;;;;;4.00;100.00;100636.50;4648669;61;1146988;-71
2024/03/05 08:38:37;;;;;;;27.87;13.37;;;;;;;4.02;100.00;100636.81;4652617;61;1140754;-70
2024/03/05 08:43:43;;;;;;;18.20;12.27;;;;;;;4.06;100.00;100642.76;4625178;62;1143145;-70
2024/03/05 08:48:49;;;;;;;20.87;14.03;;;;;;;4.09;100.00;100643.46;4606789;62;1143032;-72
2024/03/05 08:53:55;;;;;;;22.27;14.40;;;;;;;4.12;100.00;100641.16;4606673;61;1140960;-70
2024/03/05 08:59:00;;;;;;;24.30;14.05;;;;;;;4.16;100.00;100638.76;4607297;61;1140949;-72
2024/03/05 09:04:06;;;;;;;30.70;17.57;;;;;;;4.18;100.00;100640.84;4701640;61;1140704;-72
2024/03/05 09:09:12;;;;;;;27.03;14.53;;;;;;;4.26;100.00;100641.33;4781068;59;1142978;-70
2024/03/05 09:14:19;;;;;;;27.10;14.67;;;;;;;4.27;100.00;100642.17;4764218;60;1140752;-69
2024/03/05 09:19:25;;;;;;;18.10;12.43;;;;;;;4.24;100.00;100639.24;4810699;60;1140725;-72
2024/03/05 09:24:31;;;;;;;21.00;12.07;;;;;;;4.31;100.00;100631.91;4859561;59;1140578;-73
2024/03/05 09:29:38;;;;;;;18.67;11.27;;;;;;;4.42;100.00;100641.41;4810409;60;1142690;-71
2024/03/05 09:34:44;;;;;;;19.40;13.00;;;;;;;4.56;100.00;100637.63;4761611;60;1142960;-71
2024/03/05 09:39:50;;;;;;;17.37;12.47;;;;;;;4.68;100.00;100634.84;4726856;59;1140620;-73
2024/03/05 09:44:56;;;;;;;19.30;12.23;;;;;;;4.74;100.00;100648.45;4780215;59;1141150;-72
2024/03/05 09:50:05;;;;;;;26.82;16.82;;;;;;;4.79;100.00;100645.60;4780102;59;1140799;-70
2024/03/05 09:55:12;;;;;;;15.87;10.93;;;;;;;4.76;100.00;100642.67;4798359;59;1140805;-69
2024/03/05 10:00:17;;;;;;;19.00;9.57;;;;;;;4.76;100.00;100653.16;4697369;59;1141016;-71
2024/03/05 10:05:25;;;;;;;14.13;9.80;;;;;;;4.76;100.00;100653.62;4651293;60;1140852;-72
2024/03/05 10:10:33;;;;;;;13.23;10.23;;;;;;;4.76;100.00;100653.62;4874878;58;1138523;-71
2024/03/05 10:15:43;;;;;;;17.30;9.70;;;;;;;4.73;100.00;100653.34;4768469;60;1140797;-70
2024/03/05 10:20:46;;;;;;;20.65;13.28;;;;;;;4.68;100.00;100654.02;4896047;59;1138584;-70
2024/03/05 10:25:52;;;;;;;24.18;14.85;;;;;;;4.72;100.00;100659.50;4787179;59;1140720;-72
2024/03/05 10:31:01;;;;;;;21.30;11.87;;;;;;;4.75;100.00;100665.87;4744972;60;1140929;-73
2024/03/05 10:36:07;;;;;;;25.52;11.10;;;;;;;4.84;100.00;100660.64;4676080;61;1142975;-73
2024/03/05 10:41:12;;;;;;;20.07;12.20;;;;;;;4.79;100.00;100666.10;4837676;59;1140649;-71
2024/03/05 10:46:20;;;;;;;16.53;10.87;;;;;;;4.78;100.00;100671.42;4818390;59;1140800;-72
2024/03/05 10:51:32;;;;;;;17.20;9.57;;;;;;;4.75;100.00;100668.48;4819039;59;1140661;-70
2024/03/05 10:56:39;;;;;;;24.82;13.74;;;;;;;4.74;100.00;100669.88;4899043;59;1138592;-72
2024/03/05 11:01:46;;;;;;;22.30;11.43;;;;;;;4.74;100.00;100671.19;4842406;58;1142852;-71
2024/03/05 11:06:57;;;;;;;15.48;8.88;;;;;;;4.77;100.00;100671.03;4838101;59;1142963;-71
2024/03/05 11:12:07;;;;;;;15.47;8.70;;;;;;;4.77;100.00;100675.81;4833716;58;1138809;-72
2024/03/05 11:17:13;;;;;;;12.87;9.50;;;;;;;4.76;100.00;100669.34;4835417;59;1138977;-72
2024/03/05 11:22:26;;;;;;;13.20;8.47;;;;;;;4.78;100.00;100670.11;4854084;59;1140833;-70
2024/03/05 11:27:34;;;;;;;14.13;9.70;;;;;;;4.85;100.00;100668.42;4857655;59;1141005;-72
2024/03/05 11:32:41;;;;;;;14.37;9.73;;;;;;;4.90;100.00;100665.54;4838700;60;1138766;-73
2024/03/05 11:37:52;;;;;;;15.60;10.03;;;;;;;4.90;100.00;100664.23;4776429;60;1138621;-71
2024/03/05 11:42:57;;;;;;;11.73;8.18;;;;;;;4.86;100.00;100667.50;4819719;60;1140634;-71
2024/03/05 11:48:05;;;;;;;12.85;7.87;;;;;;;4.82;100.00;100663.80;4819694;60;1138496;-73
2024/03/05 11:53:12;;;;;;;10.28;7.22;;;;;;;4.83;100.00;100664.18;4906017;58;1140863;-70
2024/03/05 11:58:28;;;;;;;13.95;7.90;;;;;;;4.87;100.00;100664.41;4895764;58;1140702;-71
2024/03/05 12:03:34;;;;;;;8.93;7.03;;;;;;;4.91;100.00;100668.55;4878055;58;1140935;-72
2024/03/05 12:08:40;;;;;;;8.87;6.47;;;;;;;4.87;100.00;100671.81;4934915;58;1136586;-72
2024/03/05 12:13:47;;;;;;;10.25;6.55;;;;;;;4.88;100.00;100672.20;4855102;59;1136748;-72
2024/03/05 12:18:57;;;;;;;17.20;10.17;;;;;;;4.88;100.00;100680.06;4901293;59;1138699;-73
2024/03/05 12:24:02;;;;;;;7.77;5.17;;;;;;;4.80;100.00;100674.81;4769165;60;1140931;-70
2024/03/05 12:29:08;;;;;;;15.27;8.67;;;;;;;4.85;100.00;100692.00;4799941;61;1138613;-70
2024/03/05 12:34:14;;;;;;;19.93;11.27;;;;;;;4.79;100.00;100690.15;4778859;61;1140549;-72
2024/03/05 12:39:21;;;;;;;79.53;28.43;;;;;;;4.84;100.00;100696.02;4797009;61;1142505;-71
2024/03/05 12:44:28;;;;;;;12.87;7.50;;;;;;;4.85;100.00;100691.16;4760374;61;1140601;-72
2024/03/05 12:49:44;;;;;;;10.50;5.73;;;;;;;4.79;100.00;100692.30;4758413;60;1250388;-73
2024/03/05 12:55:02;;;;;;;18.83;6.00;;;;;;;4.74;100.00;100689.06;4756491;60;1139447;-69
2024/03/05 13:00:15;;;;;;;21.25;10.68;;;;;;;4.76;100.00;100697.70;4828027;59;1247919;-71
2024/03/05 13:05:16;;;;;;;9.47;6.77;;;;;;;4.82;100.00;100701.79;4837088;58;1142742;-73
2024/03/05 13:10:22;;;;;;;12.03;8.50;;;;;;;4.81;100.00;100696.16;4843442;59;1138432;-72
2024/03/05 13:15:28;;;;;;;10.80;6.90;;;;;;;4.85;100.00;100705.57;4834359;60;1250637;-72
2024/03/05 13:20:33;;;;;;;9.50;5.87;;;;;;;4.77;100.00;100706.41;4833987;58;1139713;-72
2024/03/05 13:25:39;;;;;;;8.27;6.47;;;;;;;4.73;100.00;100712.29;4904666;60;1136429;-72
2024/03/05 13:30:45;;;;;;;14.53;7.25;;;;;;;4.74;100.00;100706.09;4866932;59;1138391;-72
2024/03/05 13:35:51;;;;;;;13.43;8.88;;;;;;;4.79;100.00;100704.56;4808089;59;1141085;-71
2024/03/05 13:40:57;;;;;;;14.33;8.17;;;;;;;4.86;100.00;100711.20;4761581;59;1138528;-70
2024/03/05 13:46:03;;;;;;;9.00;6.20;;;;;;;4.87;100.00;100711.59;4795939;59;1138798;-71
2024/03/05 13:51:09;;;;;;;11.17;7.87;;;;;;;4.76;100.00;100717.81;4917932;59;1136349;-71
2024/03/05 13:56:14;;;;;;;12.53;8.57;;;;;;;4.77;100.00;100716.88;4951928;59;1140909;-70
2024/03/05 14:01:20;;;;;;;10.80;7.60;;;;;;;4.82;100.00;100719.67;4786580;59;1141065;-74
2024/03/05 14:06:27;;;;;;;12.70;8.33;;;;;;;4.80;100.00;100724.14;4841150;58;1138638;-71
2024/03/05 14:11:35;;;;;;;11.70;9.50;;;;;;;4.78;100.00;100725.13;4832999;59;1138994;-70
2024/03/05 14:16:40;;;;;;;20.30;9.20;;;;;;;4.77;100.00;100732.14;4855147;58;1138688;-71
2024/03/05 14:21:46;;;;;;;14.13;9.20;;;;;;;4.75;100.00;100733.14;4915274;59;1138559;-69
2024/03/05 14:26:52;;;;;;;11.00;6.50;;;;;;;4.71;100.00;100742.95;4894174;58;1138460;-71
2024/03/05 14:31:57;;;;;;;9.27;6.33;;;;;;;4.70;100.00;100749.11;4880514;59;1140675;-73
2024/03/05 14:37:03;;;;;;;10.48;6.20;;;;;;;4.64;100.00;100754.64;4862651;58;1139183;-72
2024/03/05 14:42:09;;;;;;;12.40;7.93;;;;;;;4.69;100.00;100761.83;4875668;59;1141064;-70
2024/03/05 14:47:15;;;;;;;14.43;8.50;;;;;;;4.73;100.00;100764.69;4829969;59;1146149;-72
2024/03/05 14:52:21;;;;;;;9.93;7.90;;;;;;;4.76;100.00;100767.59;4886780;59;1138789;-72
2024/03/05 14:57:27;;;;;;;11.90;7.97;;;;;;;4.75;100.00;100764.12;4838517;59;1136703;-71
2024/03/05 15:02:32;;;;;;;8.10;6.73;;;;;;;4.78;100.00;100773.61;4887575;59;1138488;-71
2024/03/05 15:07:41;;;;;;;9.90;7.13;;;;;;;4.75;100.00;100772.44;4808305;60;1136562;-71
2024/03/05 15:12:49;;;;;;;15.47;9.33;;;;;;;4.80;100.00;100783.55;4793883;60;1138942;-73
2024/03/05 15:17:55;;;;;;;17.50;8.60;;;;;;;4.82;100.00;100790.88;4676074;61;1138570;-73
2024/03/05 15:23:00;;;;;;;21.00;12.43;;;;;;;4.77;100.00;100795.03;4676548;60;1138762;-69
2024/03/05 15:28:08;;;;;;;32.20;19.73;;;;;;;4.74;100.00;100798.25;4693936;61;1141021;-69
2024/03/05 15:33:16;;;;;;;21.03;14.07;;;;;;;4.69;100.00;100805.05;4649197;61;1140736;-72
2024/03/05 15:38:21;;;;;;;31.23;18.10;;;;;;;4.67;100.00;100804.73;4753952;61;1140430;-71
2024/03/05 15:43:26;;;;;;;12.33;9.15;;;;;;;4.69;100.00;100802.43;4690957;61;1140891;-71
2024/03/05 15:48:32;;;;;;;13.20;8.23;;;;;;;4.71;100.00;100809.76;4680869;60;1140605;-72
2024/03/05 15:53:37;;;;;;;19.93;12.67;;;;;;;4.72;100.00;100815.39;4689387;62;1140799;-70
2024/03/05 16:03:48;;;;;;;24.97;15.07;;;;;;;4.84;100.00;100822.64;4744399;61;1140474;-69
2024/03/05 16:08:54;;;;;;;22.87;13.30;;;;;;;4.81;100.00;100824.09;4764044;60;1140909;-71
2024/03/05 16:14:00;;;;;;;21.20;13.75;;;;;;;4.70;100.00;100829.02;4710873;60;1141144;-71
2024/03/05 16:19:06;;;;;;;21.43;14.20;;;;;;;4.65;100.00;100839.32;4874709;59;1140591;-69
2024/03/05 16:24:11;;;;;;;23.90;15.37;;;;;;;4.63;100.00;100843.32;4764562;60;1141238;-72
2024/03/05 16:29:17;;;;;;;26.97;16.12;;;;;;;4.68;100.00;100838.72;4855758;58;1142756;-70
2024/03/05 16:34:22;;;;;;;27.33;17.23;;;;;;;4.77;100.00;100844.81;4776387;59;1143091;-72
2024/03/05 16:39:28;;;;;;;28.73;18.15;;;;;;;4.82;100.00;100849.38;4698158;61;1142656;-72
2024/03/05 16:44:37;;;;;;;24.23;14.53;;;;;;;4.79;100.00;100852.60;4888954;59;1140951;-71
2024/03/05 16:49:41;;;;;;;27.73;17.32;;;;;;;4.73;100.00;100862.94;4878306;59;1140929;-71
2024/03/05 16:54:47;;;;;;;35.00;18.70;;;;;;;4.70;100.00;100866.16;4882798;59;1141075;-72
2024/03/05 16:59:55;;;;;;;60.83;28.60;;;;;;;4.69;100.00;100877.55;4735006;60;1141036;-70
2024/03/05 17:05:03;;;;;;;92.76;49.10;;;;;;;4.70;100.00;100885.81;4741458;60;1143271;-72
2024/03/05 17:10:08;;;;;;;81.50;44.83;;;;;;;4.75;100.00;100892.97;4805492;59;1143432;-70
2024/03/05 17:15:15;;;;;;;52.77;26.00;;;;;;;4.76;100.00;100892.05;4730435;60;1142840;-70
2024/03/05 17:20:21;;;;;;;72.03;32.03;;;;;;;4.79;100.00;100891.45;4730740;60;1140841;-72
2024/03/05 17:25:27;;;;;;;65.60;30.10;;;;;;;4.78;100.00;100900.69;4746880;60;1140723;-70
2024/03/05 17:30:33;;;;;;;68.67;30.17;;;;;;;4.76;100.00;100901.22;4745788;60;1140846;-72
2024/03/05 17:35:40;;;;;;;65.67;28.62;;;;;;;4.71;100.00;100909.31;4749495;60;1140998;-69
2024/03/05 17:40:47;;;;;;;55.92;27.55;;;;;;;4.69;100.00;100913.78;4806904;60;1141309;-69
2024/03/05 17:45:53;;;;;;;43.23;23.20;;;;;;;4.72;100.00;100911.48;4740366;61;1142860;-71
2024/03/05 17:50:59;;;;;;;33.10;19.77;;;;;;;4.74;100.00;100913.08;4725987;60;1142854;-70
2024/03/05 17:56:05;;;;;;;42.00;21.90;;;;;;;4.84;100.00;100922.68;4749628;61;1143097;-73
2024/03/05 18:01:19;;;;;;;45.10;24.07;;;;;;;4.86;100.00;100924.77;4739241;60;1140992;-70
2024/03/05 18:06:21;;;;;;;39.80;24.43;;;;;;;4.77;100.00;100931.28;4769504;60;1141108;-78
2024/03/05 18:11:28;;;;;;;36.73;22.50;;;;;;;4.71;100.00;100938.14;4710216;60;1141025;-79
2024/03/05 18:16:33;;;;;;;35.80;19.87;;;;;;;4.65;100.00;100947.58;4712124;61;1140988;-75
2024/03/05 18:21:41;;;;;;;40.98;21.07;;;;;;;4.62;100.00;100944.24;4735531;60;1141232;-76
2024/03/05 18:26:47;;;;;;;43.95;22.95;;;;;;;4.64;100.00;100948.95;4730485;61;1143034;-74
2024/03/05 18:31:52;;;;;;;51.50;24.37;;;;;;;4.68;100.00;100953.99;4758339;60;1143163;-75
2024/03/05 18:36:58;;;;;;;51.13;25.70;;;;;;;4.76;100.00;100956.23;4837301;59;1142691;-70
2024/03/05 18:42:04;;;;;;;40.90;20.70;;;;;;;4.82;100.00;100957.28;4906427;58;1182862;-75
2024/03/05 18:47:10;;;;;;;37.10;20.37;;;;;;;4.80;100.00;100956.50;4745740;60;1247695;-74
2024/03/05 18:52:15;;;;;;;40.27;22.13;;;;;;;4.76;100.00;100968.03;4755668;61;1140508;-71
2024/03/05 18:57:22;;;;;;;143.93;49.67;;;;;;;4.77;100.00;100973.66;4683988;60;1242975;-75
2024/03/05 19:02:28;;;;;;;71.77;30.73;;;;;;;4.78;100.00;100974.91;4774542;59;1145257;-77
2024/03/05 19:07:34;;;;;;;88.50;33.13;;;;;;;4.75;100.00;100972.88;4747400;61;1142826;-78
2024/03/05 19:12:41;;;;;;;100.03;40.60;;;;;;;4.78;100.00;100974.91;4734720;60;1143029;-73
2024/03/05 19:17:47;;;;;;;72.43;33.87;;;;;;;4.81;100.00;100973.92;4791515;60;1261366;-77
2024/03/05 19:22:53;;;;;;;62.73;29.20;;;;;;;4.82;100.00;100978.24;4800941;60;1140934;-75
2024/03/05 19:28:00;;;;;;;59.00;28.07;;;;;;;4.80;100.00;100994.03;4708732;60;1140914;-75
2024/03/05 19:33:06;;;;;;;76.15;32.65;;;;;;;4.75;100.00;100994.69;4767353;61;1140872;-72
2024/03/05 19:38:13;;;;;;;63.07;29.97;;;;;;;4.72;100.00;101000.10;4786657;60;1140712;-76
2024/03/05 19:43:18;;;;;;;59.97;28.87;;;;;;;4.69;100.00;101000.23;4771502;60;1140865;-74
2024/03/05 19:48:24;;;;;;;53.77;26.93;;;;;;;4.68;100.00;101002.46;4700207;60;1141171;-73
2024/03/05 19:53:31;;;;;;;58.97;27.63;;;;;;;4.64;100.00;101003.52;4780699;60;1140668;-74
2024/03/05 19:58:37;;;;;;;59.03;31.10;;;;;;;4.66;100.00;101007.38;4727372;61;1140895;-78
2024/03/05 20:03:42;;;;;;;39.67;21.80;;;;;;;4.65;100.00;101006.98;4889326;58;1140694;-77
2024/03/05 20:08:48;;;;;;;62.93;29.33;;;;;;;4.64;100.00;101003.97;4882037;59;1140620;-77
2024/03/05 20:13:54;;;;;;;50.07;28.37;;;;;;;4.75;100.00;101009.11;4760957;60;1143300;-76
2024/03/05 20:19:00;;;;;;;38.25;22.15;;;;;;;4.84;100.00;101010.02;4879072;59;1143224;-77
2024/03/05 20:24:09;;;;;;;65.83;30.57;;;;;;;4.91;100.00;101006.63;4882862;59;1142650;-77
2024/03/05 20:29:16;;;;;;;65.50;33.70;;;;;;;4.91;100.00;101010.10;4770614;59;1140835;-75
2024/03/05 20:34:22;;;;;;;76.63;33.77;;;;;;;4.80;100.00;101015.45;4773367;59;1140850;-74
2024/03/05 20:39:28;;;;;;;72.03;33.13;;;;;;;4.75;100.00;101017.42;4828858;59;1140950;-75
2024/03/05 20:44:34;;;;;;;53.85;27.55;;;;;;;4.66;100.00;101030.50;4828696;59;1140945;-74
2024/03/05 20:49:40;;;;;;;64.97;29.60;;;;;;;4.60;100.00;101028.14;4824798;59;1140824;-78
2024/03/05 20:54:46;;;;;;;108.60;60.17;;;;;;;4.65;100.00;101031.41;4849328;60;1143172;-76
2024/03/05 20:59:59;;;;;;;57.17;28.83;;;;;;;4.67;100.00;101037.90;4796118;58;1144780;-77
2024/03/05 21:05:01;;;;;;;46.63;27.17;;;;;;;4.75;100.00;101041.01;4825166;60;1143096;-79
2024/03/05 21:10:09;;;;;;;52.47;27.70;;;;;;;4.81;100.00;101042.91;4779411;59;1143014;-75
2024/03/05 21:15:14;;;;;;;67.10;30.00;;;;;;;4.85;100.00;101044.94;4832492;59;1140966;-73
2024/03/05 21:20:20;;;;;;;75.73;34.33;;;;;;;4.82;100.00;101051.16;4809921;59;1140899;-73
2024/03/05 21:25:27;;;;;;;48.70;27.03;;;;;;;4.72;100.00;101047.27;4858591;59;1140805;-75
2024/03/05 21:30:32;;;;;;;47.80;25.40;;;;;;;4.70;100.00;101050.41;4826500;60;1140773;-74
2024/03/05 21:35:39;;;;;;;41.40;22.27;;;;;;;4.70;100.00;101049.56;4716785;61;1142906;-75
2024/03/05 21:40:45;;;;;;;36.73;21.23;;;;;;;4.72;100.00;101059.05;4703035;61;1142848;-74
2024/03/05 21:45:51;;;;;;;41.43;23.37;;;;;;;4.78;100.00;101061.84;4712728;61;1143135;-72
2024/03/05 21:50:57;;;;;;;103.47;36.47;;;;;;;4.82;100.00;101060.79;4699527;60;1143137;-76
2024/03/05 21:56:02;;;;;;;277.57;75.53;;;;;;;4.71;100.00;101060.43;4731289;61;1142797;-75
2024/03/05 22:01:08;;;;;;;132.43;48.63;;;;;;;4.56;100.00;101058.88;4736655;60;1143064;-74
2024/03/05 22:06:14;;;;;;;132.57;45.20;;;;;;;4.42;100.00;101057.79;4703396;61;1143141;-73
2024/03/05 22:11:20;;;;;;;131.33;44.50;;;;;;;4.40;100.00;101069.63;4730772;60;1143037;-72
2024/03/05 22:16:25;;;;;;;103.00;41.13;;;;;;;4.42;100.00;101068.27;4739963;60;1143042;-75
2024/03/05 22:21:34;;;;;;;90.30;35.65;;;;;;;4.43;100.00;101076.02;4711282;60;1144956;-72
2024/03/05 22:26:40;;;;;;;94.33;36.40;;;;;;;4.53;100.00;101078.66;4686142;61;1142843;-74
2024/03/05 22:31:45;;;;;;;68.73;30.47;;;;;;;4.54;100.00;101083.44;4689874;62;1142829;-75
2024/03/05 22:36:51;;;;;;;53.63;28.23;;;;;;;4.61;100.00;101086.16;4700964;61;1143099;-73
2024/03/05 22:41:56;;;;;;;49.97;25.77;;;;;;;4.66;100.00;101088.59;4644476;60;1140993;-75
2024/03/05 22:47:02;;;;;;;94.00;39.20;;;;;;;4.68;100.00;101098.55;4760134;60;1140810;-75
2024/03/05 22:52:08;;;;;;;174.07;73.17;;;;;;;4.68;100.00;101098.09;4741207;61;1141069;-71